Main page
METAR-TAF:

METAR-TAF

Airports :

Turaif Domestic Airport

Turaif, Saudi Arabia

latitude: 31-41N, longitude: 038-44E, elevation: 813 m

Current weather observation

The report was made 31 minutes ago, at 12:00 UTC
Wind 12 kt from the West
Temperature 39°C
Humidity 9%
Pressure 1009 hPa
Visibility 10 km or more
no clouds below 1500 m and no cumulonimbus

METAR: OETR 121200Z 27012KT CAVOK 39/00 Q1009 NOSIG

Time: 15:31 (12:31 UTC)

Forecast

The report was made 1 hour and 31 minutes ago, at 11:00 UTC
Forecast valid from 12 at 12 UTC to 13 at 18 UTC
Wind 14 kt from the West
Visibility 10 km or more
no clouds below 1500 m and no cumulonimbus
Becoming
from 12 at 18 UTC to 12 at 20 UTC
Wind 14 kt from the North/Northwest
Visibility: 7000 m
Becoming
from 13 at 06 UTC to 13 at 08 UTC
Wind 10 kt from the North/Northwest

TAF: OETR 121100Z 1212/1318 27014KT CAVOK BECMG 1218/1220 34014KT 7000 NSC BECMG 1306/1308 33010KT

Weather observations and forecasts of more than 4000 airports (METAR and TAF reports).

The available stations are represented by yellow and red dots on the map.

Hover mouse over dot to see the name of the station.

Then click to see weather observations and forecasts.

To change the map : click on the green buttons with a black cross to zoom in, on the green button with a dash to zoom out, or on the green arrows for adjacent maps.


METAR-TAF: